Time;durP1;ratioP1;P1;durP2;ratioP2;P2;SDS_P1;SDS_P2;PMS_P1;PMS_P2;Temp;Humidity;BMP_temperature;BMP_pressure;BME280_temperature;BME280_humidity;BME280_pressure;Samples;Min_cycle;Max_cycle;Signal;HPM_P1;HPM_P2
2022/07/18 00:00:56;;;;;;;9.00;1.67;;;;;;;16.19;76.60;101510.53;2006990;29;20045;-65
2022/07/18 00:02:04;;;;;;;5.82;1.67;;;;;;;16.20;76.60;101504.00;2022103;29;20052;-65
2022/07/18 00:03:08;;;;;;;4.20;1.55;;;;;;;16.22;76.47;101504.53;2028312;29;20044;-66
2022/07/18 00:04:10;;;;;;;8.02;1.52;;;;;;;16.20;76.71;101510.25;2020990;29;20060;-65
2022/07/18 00:05:12;;;;;;;5.22;1.58;;;;;;;16.21;76.70;101511.06;2014942;29;20937;-65
2022/07/18 00:06:14;;;;;;;7.18;1.75;;;;;;;16.21;76.70;101505.63;2024617;29;20044;-65
2022/07/18 00:07:19;;;;;;;7.45;2.15;;;;;;;16.18;76.76;101503.50;2032202;29;20044;-65
2022/07/18 00:08:24;;;;;;;3.92;1.27;;;;;;;16.17;77.16;101512.72;2032947;29;20161;-65
2022/07/18 00:09:29;;;;;;;6.13;1.80;;;;;;;16.17;76.98;101502.69;2024399;29;20056;-65
2022/07/18 00:10:32;;;;;;;5.47;1.50;;;;;;;16.19;77.14;101508.63;2017434;29;20037;-66
2022/07/18 00:11:37;;;;;;;7.43;1.65;;;;;;;16.16;77.14;101508.41;2032287;29;20044;-65
2022/07/18 00:12:45;;;;;;;6.65;1.98;;;;;;;16.20;76.95;101504.00;2031647;29;20052;-65
2022/07/18 00:13:55;;;;;;;8.55;1.67;;;;;;;16.20;76.86;101504.84;2032079;29;20052;-65
2022/07/18 00:14:59;;;;;;;6.97;1.38;;;;;;;16.19;77.21;101503.19;2031926;29;20076;-65
2022/07/18 00:16:01;;;;;;;10.80;1.83;;;;;;;16.22;76.94;101507.25;2024197;29;20044;-66
2022/07/18 00:17:09;;;;;;;2.60;1.35;;;;;;;16.17;76.94;101505.41;2025087;29;20044;-65
2022/07/18 00:18:13;;;;;;;5.15;1.75;;;;;;;16.18;77.11;101506.22;2024902;29;20517;-65
2022/07/18 00:19:23;;;;;;;6.80;1.83;;;;;;;16.17;77.35;101501.88;2025248;29;20040;-65
2022/07/18 00:20:30;;;;;;;5.37;1.70;;;;;;;16.14;77.38;101510.59;2031447;29;20056;-65
2022/07/18 00:21:33;;;;;;;5.30;1.67;;;;;;;16.13;77.28;101503.56;2032155;29;20288;-65
2022/07/18 00:22:41;;;;;;;4.72;1.60;;;;;;;16.14;77.37;101510.59;2031572;29;20476;-65
2022/07/18 00:23:46;;;;;;;4.05;1.35;;;;;;;16.15;77.25;101512.22;2024621;29;20052;-65
2022/07/18 00:24:49;;;;;;;5.45;2.13;;;;;;;16.16;77.43;101505.69;2024002;29;20044;-65
2022/07/18 00:25:54;;;;;;;6.55;2.08;;;;;;;16.14;77.56;101505.16;2017141;29;20049;-64
2022/07/18 00:27:00;;;;;;;6.28;1.52;;;;;;;16.13;77.42;101504.38;2024571;29;20040;-65
2022/07/18 00:28:01;;;;;;;6.72;1.65;;;;;;;16.13;77.48;101512.50;2039464;29;20047;-63
2022/07/18 00:29:06;;;;;;;8.85;1.95;;;;;;;16.15;77.52;101512.22;2021066;29;20727;-61
2022/07/18 00:30:10;;;;;;;8.38;1.70;;;;;;;16.14;77.69;101500.56;2010346;29;20045;-61
2022/07/18 00:31:16;;;;;;;4.72;1.48;;;;;;;16.05;77.90;101506.94;2016957;29;20053;-61
2022/07/18 00:32:18;;;;;;;6.50;1.63;;;;;;;16.04;77.95;101505.31;2009357;29;20049;-61
2022/07/18 00:33:25;;;;;;;4.93;1.58;;;;;;;16.03;78.41;101498.28;2017209;29;20032;-61
2022/07/18 00:34:32;;;;;;;5.15;1.52;;;;;;;16.04;78.18;101511.53;2025961;29;20052;-61
2022/07/18 00:35:34;;;;;;;4.10;1.55;;;;;;;16.05;77.98;101517.81;2024771;29;20048;-61
2022/07/18 00:36:38;;;;;;;5.07;1.50;;;;;;;16.06;78.24;101508.56;2024259;29;20061;-61
2022/07/18 00:37:46;;;;;;;12.90;1.85;;;;;;;16.05;78.12;101515.09;2024055;29;20048;-61
2022/07/18 00:38:48;;;;;;;8.57;1.60;;;;;;;16.05;78.20;101507.75;2023676;29;20060;-61
2022/07/18 00:39:50;;;;;;;2.97;1.60;;;;;;;16.07;77.87;101512.88;2023358;29;20050;-61
2022/07/18 00:40:55;;;;;;;3.22;1.60;;;;;;;16.07;78.27;101510.16;2017076;29;20401;-61
2022/07/18 00:41:56;;;;;;;6.43;1.77;;;;;;;16.05;78.06;101505.03;2018997;29;20386;-61
2022/07/18 00:43:02;;;;;;;5.38;1.60;;;;;;;16.07;78.15;101504.72;2031320;29;20062;-61
2022/07/18 00:44:04;;;;;;;4.15;1.80;;;;;;;16.05;78.11;101513.19;2024878;29;20036;-61
2022/07/18 00:45:13;;;;;;;5.28;1.45;;;;;;;16.04;78.13;101508.03;2016500;29;20049;-61
2022/07/18 00:46:15;;;;;;;8.30;1.58;;;;;;;16.01;78.15;101504.00;2010388;29;20411;-61
2022/07/18 00:47:20;;;;;;;3.45;1.60;;;;;;;16.00;78.78;101499.66;2024394;29;20528;-61
2022/07/18 00:48:24;;;;;;;5.97;1.98;;;;;;;16.02;78.63;101512.97;2024227;29;20040;-61
2022/07/18 00:49:27;;;;;;;6.88;1.70;;;;;;;16.01;78.74;101505.91;2016570;29;20051;-61
2022/07/18 00:50:32;;;;;;;7.50;1.92;;;;;;;15.99;78.89;101509.72;2009355;29;20076;-60
2022/07/18 00:51:39;;;;;;;6.53;1.77;;;;;;;16.00;78.55;101510.53;2023470;29;20071;-61
2022/07/18 00:52:41;;;;;;;5.93;1.50;;;;;;;15.99;78.57;101503.50;2039502;29;20044;-61
2022/07/18 00:53:49;;;;;;;7.65;1.77;;;;;;;16.03;78.74;101501.81;2031467;29;20043;-61
2022/07/18 00:54:51;;;;;;;5.03;1.65;;;;;;;15.95;78.76;101502.44;2032301;29;20048;-61
2022/07/18 00:55:58;;;;;;;7.72;1.60;;;;;;;16.02;78.83;101504.81;2023625;29;20063;-61
2022/07/18 00:57:07;;;;;;;5.97;1.65;;;;;;;16.04;78.85;101510.75;2025224;29;20068;-61
2022/07/18 00:58:10;;;;;;;7.80;1.60;;;;;;;16.05;78.98;101504.25;2028713;29;20044;-61
2022/07/18 00:59:13;;;;;;;2.90;1.67;;;;;;;15.99;78.60;101504.28;2023835;29;20059;-61
2022/07/18 01:01:47;;;;;;;4.88;1.50;;;;;;;16.06;78.85;101498.50;2023225;29;20047;-61
2022/07/18 01:02:52;;;;;;;3.53;1.60;;;;;;;16.05;78.61;101501.53;2032070;29;20463;-61
2022/07/18 01:03:54;;;;;;;4.10;1.70;;;;;;;16.01;78.72;101503.19;2024402;29;20049;-61
2022/07/18 01:04:59;;;;;;;5.32;1.67;;;;;;;15.99;78.89;101507.00;2023983;29;20079;-61
2022/07/18 01:06:03;;;;;;;5.15;1.60;;;;;;;16.03;79.07;101506.44;2024708;29;20055;-61
2022/07/18 01:07:09;;;;;;;5.55;1.60;;;;;;;16.02;78.73;101512.97;2024274;29;20063;-61
2022/07/18 01:08:13;;;;;;;3.78;1.40;;;;;;;16.01;79.05;101503.19;2024060;29;20040;-60
2022/07/18 01:09:17;;;;;;;7.07;1.75;;;;;;;15.98;79.02;101507.28;2023684;29;20048;-60
2022/07/18 01:10:22;;;;;;;4.88;1.85;;;;;;;15.98;78.98;101502.69;2023748;29;20052;-61
2022/07/18 01:11:25;;;;;;;5.95;1.67;;;;;;;15.99;79.12;101501.59;2031438;29;20075;-61
2022/07/18 01:12:27;;;;;;;8.50;1.85;;;;;;;15.98;79.19;101501.84;2026910;29;20029;-60
2022/07/18 01:13:33;;;;;;;4.15;1.70;;;;;;;15.97;79.25;101502.97;2023374;29;20060;-61
2022/07/18 01:14:37;;;;;;;4.43;1.60;;;;;;;15.97;79.44;101505.69;2024234;29;20048;-60
2022/07/18 01:15:39;;;;;;;4.07;1.73;;;;;;;15.93;79.42;101496.53;2027831;29;20432;-60
2022/07/18 01:16:43;;;;;;;4.32;1.45;;;;;;;15.96;79.56;101498.66;2024070;29;20512;-60
2022/07/18 01:17:45;;;;;;;5.13;1.90;;;;;;;15.96;79.52;101493.22;2023744;29;20374;-61
2022/07/18 01:18:49;;;;;;;4.03;1.80;;;;;;;15.94;79.78;101498.13;2025166;29;20052;-61
2022/07/18 01:19:53;;;;;;;8.48;1.85;;;;;;;15.92;79.63;101498.44;2032136;29;20051;-61
2022/07/18 01:20:58;;;;;;;3.58;1.70;;;;;;;15.94;79.68;101498.94;2032413;29;20032;-61
2022/07/18 01:22:00;;;;;;;4.70;1.60;;;;;;;15.97;79.59;101495.63;2032413;29;20043;-61
2022/07/18 01:23:05;;;;;;;5.78;1.67;;;;;;;15.96;79.42;101494.03;2031428;29;20137;-60
2022/07/18 01:24:11;;;;;;;3.25;1.42;;;;;;;15.91;79.60;101491.38;2031890;29;20048;-61
2022/07/18 01:25:17;;;;;;;7.80;2.30;;;;;;;15.92;79.56;101487.59;2022808;29;20044;-62
2022/07/18 01:26:21;;;;;;;5.60;1.70;;;;;;;15.96;79.85;101496.75;2013009;29;20540;-62
2022/07/18 01:27:26;;;;;;;4.85;1.80;;;;;;;15.97;79.79;101495.63;2016398;29;20040;-61
2022/07/18 01:28:28;;;;;;;4.68;1.80;;;;;;;15.97;79.64;101501.06;2031358;29;20111;-61
2022/07/18 01:29:34;;;;;;;3.78;1.40;;;;;;;15.94;79.55;101500.84;2031368;29;20068;-61
2022/07/18 01:30:39;;;;;;;5.20;2.05;;;;;;;15.93;79.78;101494.63;2023829;29;20493;-61
2022/07/18 01:31:40;;;;;;;2.85;1.42;;;;;;;15.92;79.43;101493.00;2024140;29;20032;-61
2022/07/18 01:32:44;;;;;;;4.80;1.50;;;;;;;15.91;79.77;101490.56;2024093;29;20033;-61
2022/07/18 01:33:46;;;;;;;6.38;1.65;;;;;;;15.93;79.92;101489.19;2023590;29;20048;-61
2022/07/18 01:34:51;;;;;;;5.68;1.60;;;;;;;15.91;79.80;101496.78;2016456;29;20032;-61
2022/07/18 01:35:54;;;;;;;5.18;1.65;;;;;;;15.92;79.75;101495.72;2031237;29;20055;-61
2022/07/18 01:36:59;;;;;;;3.72;1.58;;;;;;;15.93;79.52;101494.63;2023766;29;20048;-61
2022/07/18 01:38:03;;;;;;;3.25;1.40;;;;;;;15.94;79.68;101496.22;2024528;29;20536;-61
2022/07/18 01:39:05;;;;;;;2.63;1.40;;;;;;;15.97;79.63;101492.91;2023778;29;20081;-61
2022/07/18 01:40:13;;;;;;;5.60;1.70;;;;;;;15.98;79.62;101486.41;2010052;29;20054;-61
2022/07/18 01:41:18;;;;;;;6.70;1.88;;;;;;;15.98;79.68;101491.00;2017936;29;20037;-61
2022/07/18 01:42:22;;;;;;;6.38;1.63;;;;;;;15.91;79.68;101491.38;2024751;29;20040;-61
2022/07/18 01:43:26;;;;;;;6.75;2.28;;;;;;;15.88;79.94;101494.66;2016847;29;20045;-61
2022/07/18 01:44:32;;;;;;;4.03;1.30;;;;;;;15.89;79.61;101488.16;2024520;29;20043;-61
2022/07/18 01:45:39;;;;;;;5.60;1.60;;;;;;;15.89;79.93;101493.59;2032115;29;20653;-61
2022/07/18 01:46:44;;;;;;;3.10;1.73;;;;;;;15.91;79.86;101485.16;2032431;29;20055;-61
2022/07/18 01:47:46;;;;;;;4.75;1.60;;;;;;;15.89;79.97;101488.16;2023501;29;20131;-61
2022/07/18 01:48:54;;;;;;;5.97;1.40;;;;;;;15.89;80.07;101495.47;2017779;29;20762;-61
2022/07/18 01:49:59;;;;;;;6.82;1.80;;;;;;;15.92;79.69;101492.16;2031261;29;20056;-61
2022/07/18 01:51:03;;;;;;;2.88;1.48;;;;;;;15.90;79.58;101488.97;2024651;29;20527;-61
2022/07/18 01:52:09;;;;;;;3.92;1.42;;;;;;;15.89;80.02;101495.47;2032275;29;20040;-61
2022/07/18 01:53:13;;;;;;;4.75;1.58;;;;;;;15.84;80.23;101490.94;2032966;29;20063;-61
2022/07/18 01:54:29;;;;;;;6.50;1.95;;;;;;;15.86;80.25;101490.66;2018249;29;20064;-62
2022/07/18 01:55:39;;;;;;;5.60;1.67;;;;;;;15.85;79.93;101495.25;2028205;29;20052;-62
2022/07/18 01:56:41;;;;;;;5.18;1.80;;;;;;;15.84;80.17;101499.06;2033368;29;20055;-61
2022/07/18 01:57:47;;;;;;;5.97;1.95;;;;;;;15.86;80.50;101494.16;2032478;29;20055;-62
2022/07/18 01:58:52;;;;;;;5.93;1.70;;;;;;;15.84;80.43;101490.94;2033279;29;20048;-62
2022/07/18 01:59:56;;;;;;;5.07;2.20;;;;;;;15.86;80.22;101494.16;2033124;29;20052;-62
2022/07/18 02:00:59;;;;;;;9.52;2.10;;;;;;;15.85;80.66;101487.09;2016618;29;20057;-62
2022/07/18 02:02:04;;;;;;;5.88;1.70;;;;;;;15.83;80.33;101492.03;2025584;29;20441;-62
2022/07/18 02:03:10;;;;;;;3.63;1.40;;;;;;;15.83;80.47;101494.75;2033849;29;20052;-62
2022/07/18 02:04:12;;;;;;;4.45;1.60;;;;;;;15.83;80.50;101492.03;2025358;29;20059;-62
2022/07/18 02:05:17;;;;;;;5.35;1.90;;;;;;;15.85;80.80;101487.09;2025366;29;20529;-62
2022/07/18 02:06:20;;;;;;;6.45;2.00;;;;;;;15.87;80.51;101490.34;2025801;29;20052;-61
2022/07/18 02:07:22;;;;;;;3.28;1.65;;;;;;;15.87;80.52;101495.78;2025523;29;20063;-62
2022/07/18 02:08:31;;;;;;;5.30;1.58;;;;;;;15.89;80.51;101488.16;2016746;29;20483;-62
2022/07/18 02:09:33;;;;;;;5.28;1.77;;;;;;;15.86;80.67;101487.94;2025443;29;20052;-62
2022/07/18 02:10:36;;;;;;;8.10;2.35;;;;;;;15.84;80.89;101490.94;2025432;29;20503;-62
2022/07/18 02:11:37;;;;;;;8.23;1.75;;;;;;;15.82;80.91;101486.88;2025034;29;20420;-62
2022/07/18 02:12:43;;;;;;;5.50;1.90;;;;;;;15.85;80.95;101481.69;2025705;29;20059;-62
2022/07/18 02:13:51;;;;;;;5.50;1.63;;;;;;;15.87;81.11;101478.69;2017683;29;20040;-62
2022/07/18 02:14:53;;;;;;;6.63;1.80;;;;;;;15.89;80.95;101485.44;2011055;29;20049;-62
2022/07/18 02:15:58;;;;;;;5.18;1.60;;;;;;;15.88;80.91;101480.31;2024858;29;20052;-62
2022/07/18 02:17:05;;;;;;;6.07;1.70;;;;;;;15.88;80.88;101486.53;2025887;29;20040;-62
2022/07/18 02:18:13;;;;;;;4.70;2.13;;;;;;;15.88;80.93;101486.53;2031795;29;20036;-62
2022/07/18 02:19:15;;;;;;;7.97;1.95;;;;;;;15.86;80.94;101482.53;2033270;29;20055;-62
2022/07/18 02:20:22;;;;;;;4.45;1.70;;;;;;;15.86;81.00;101483.31;2017636;29;20041;-62
2022/07/18 02:21:26;;;;;;;5.93;1.80;;;;;;;15.88;81.30;101489.25;2011700;29;20534;-62
2022/07/18 02:22:29;;;;;;;5.80;1.65;;;;;;;15.87;81.10;101492.25;2016968;29;20052;-62
2022/07/18 02:23:34;;;;;;;5.60;1.52;;;;;;;15.89;81.27;101488.16;2025204;29;20496;-62
2022/07/18 02:24:39;;;;;;;5.57;1.90;;;;;;;15.92;81.16;101479.44;2033281;29;20039;-62
2022/07/18 02:25:44;;;;;;;7.47;1.65;;;;;;;15.94;81.28;101479.13;2032918;29;20342;-62
2022/07/18 02:26:50;;;;;;;5.05;1.90;;;;;;;15.96;81.25;101477.75;2026201;29;20185;-62
2022/07/18 02:27:52;;;;;;;10.02;2.17;;;;;;;15.97;80.88;101484.78;2025313;29;20418;-63
2022/07/18 02:28:54;;;;;;;5.38;1.70;;;;;;;15.97;81.00;101483.97;2024852;29;20409;-62
2022/07/18 02:29:58;;;;;;;4.68;1.88;;;;;;;15.97;80.99;101490.22;2017977;29;20049;-62
2022/07/18 02:31:00;;;;;;;4.72;1.83;;;;;;;15.95;81.06;101484.28;2017542;29;20052;-62
2022/07/18 02:32:07;;;;;;;5.95;1.83;;;;;;;15.94;80.98;101485.38;2025815;29;20049;-62
2022/07/18 02:33:10;;;;;;;3.95;1.48;;;;;;;15.93;81.16;101482.97;2025798;29;20441;-62
2022/07/18 02:34:17;;;;;;;8.60;2.58;;;;;;;15.96;81.00;101482.38;2017951;29;20045;-62
2022/07/18 02:35:24;;;;;;;4.78;1.58;;;;;;;15.99;81.11;101485.31;2026583;29;20052;-61
2022/07/18 02:36:32;;;;;;;2.58;1.33;;;;;;;15.96;80.97;101487.81;2033152;29;20056;-61
2022/07/18 02:37:37;;;;;;;3.58;1.70;;;;;;;15.96;80.88;101483.19;2033509;29;20048;-62
2022/07/18 02:38:42;;;;;;;3.92;1.70;;;;;;;15.97;81.21;101482.06;2025363;29;20060;-61
2022/07/18 02:39:45;;;;;;;3.35;2.03;;;;;;;15.98;80.88;101491.84;2025663;29;20043;-61
2022/07/18 02:40:52;;;;;;;9.00;1.73;;;;;;;15.98;81.13;101483.69;2025066;29;20040;-62
2022/07/18 02:41:57;;;;;;;3.63;1.50;;;;;;;15.99;81.16;101488.03;2025842;29;20055;-62
2022/07/18 02:43:02;;;;;;;6.57;1.95;;;;;;;16.02;81.12;101485.84;2025811;29;20040;-63
2022/07/18 02:44:04;;;;;;;7.45;1.73;;;;;;;16.03;80.83;101484.72;2025079;29;20051;-62
2022/07/18 02:45:08;;;;;;;8.30;2.00;;;;;;;15.98;81.12;101486.41;2025165;29;20100;-62
2022/07/18 02:46:11;;;;;;;6.25;1.88;;;;;;;15.98;80.83;101485.59;2025706;29;20057;-62
2022/07/18 02:47:13;;;;;;;7.53;1.85;;;;;;;15.98;81.06;101485.59;2025486;29;20055;-62
2022/07/18 02:48:17;;;;;;;5.97;1.70;;;;;;;16.01;81.26;101478.78;2025354;29;20079;-62
2022/07/18 02:49:28;;;;;;;5.78;2.08;;;;;;;16.03;81.05;101488.25;2025333;29;20496;-62
2022/07/18 02:50:35;;;;;;;7.70;1.83;;;;;;;16.01;81.16;101484.19;2032656;29;20059;-62
2022/07/18 02:51:39;;;;;;;2.30;1.50;;;;;;;16.02;81.08;101480.41;2028888;29;20056;-61
2022/07/18 02:52:43;;;;;;;6.00;1.75;;;;;;;16.02;81.33;101491.25;2033961;29;20528;-61
2022/07/18 02:53:46;;;;;;;4.05;1.80;;;;;;;16.03;81.37;101482.00;2032608;29;20048;-62
2022/07/18 02:54:50;;;;;;;6.68;1.85;;;;;;;16.05;81.14;101487.97;2039982;29;20091;-62
2022/07/18 02:55:54;;;;;;;6.07;1.85;;;;;;;16.04;81.30;101487.13;2025100;29;20044;-61
2022/07/18 02:57:01;;;;;;;3.13;1.80;;;;;;;15.98;81.41;101486.41;2025935;29;20060;-62
2022/07/18 02:58:03;;;;;;;6.78;1.73;;;;;;;15.98;81.43;101482.88;2033152;29;20461;-62
2022/07/18 02:59:07;;;;;;;3.88;1.75;;;;;;;16.01;81.39;101484.19;2018114;29;21117;-62
2022/07/18 03:00:14;;;;;;;5.28;1.98;;;;;;;15.98;81.80;101486.41;2025077;29;20563;-62
2022/07/18 03:01:22;;;;;;;4.43;1.83;;;;;;;15.99;81.50;101488.03;2030702;29;20041;-62
2022/07/18 03:02:29;;;;;;;4.63;2.13;;;;;;;16.03;81.27;101480.09;2024833;29;20056;-62
2022/07/18 03:03:31;;;;;;;4.88;1.90;;;;;;;16.03;81.65;101482.00;2017165;29;20242;-62
2022/07/18 03:04:38;;;;;;;4.18;1.80;;;;;;;16.03;81.30;101482.81;2011369;29;20077;-62
2022/07/18 03:05:46;;;;;;;4.93;1.92;;;;;;;16.01;81.55;101485.00;2024211;29;20049;-62
2022/07/18 03:06:53;;;;;;;4.38;1.80;;;;;;;16.03;81.55;101479.31;2012786;29;20033;-62
2022/07/18 03:08:00;;;;;;;7.60;1.95;;;;;;;16.05;81.72;101480.63;2024911;29;20072;-62
2022/07/18 03:09:04;;;;;;;3.97;1.85;;;;;;;16.06;81.52;101481.44;2024431;29;20060;-62
2022/07/18 03:10:08;;;;;;;7.25;1.67;;;;;;;16.06;81.65;101492.28;2024835;29;20067;-62
2022/07/18 03:11:12;;;;;;;3.67;1.80;;;;;;;16.04;81.58;101489.84;2025038;29;20056;-62
2022/07/18 03:12:19;;;;;;;5.32;1.95;;;;;;;16.07;81.49;101493.88;2017590;29;20064;-62
2022/07/18 03:13:31;;;;;;;7.78;1.92;;;;;;;16.07;81.80;101485.75;2024540;29;20069;-62
2022/07/18 03:14:35;;;;;;;5.60;2.00;;;;;;;16.08;81.65;101488.19;2024832;29;20048;-61
2022/07/18 03:15:40;;;;;;;6.72;1.95;;;;;;;16.08;81.45;101487.34;2018121;29;20037;-62
2022/07/18 03:16:44;;;;;;;3.88;1.90;;;;;;;16.07;81.63;101491.16;2025167;29;20045;-62
2022/07/18 03:17:49;;;;;;;6.25;2.53;;;;;;;16.09;81.84;101489.78;2027618;29;20059;-62
2022/07/18 03:18:54;;;;;;;4.43;2.10;;;;;;;16.11;81.71;101489.47;2032900;29;20068;-61
2022/07/18 03:19:59;;;;;;;3.58;2.00;;;;;;;16.12;81.59;101485.69;2032381;29;20048;-62
2022/07/18 03:21:05;;;;;;;5.63;1.85;;;;;;;16.14;81.66;101491.59;2025793;29;20044;-62
2022/07/18 03:22:15;;;;;;;9.13;2.30;;;;;;;16.14;81.91;101487.00;2018087;29;20052;-62
2022/07/18 03:23:20;;;;;;;6.78;2.05;;;;;;;16.17;81.89;101489.13;2026061;29;20052;-62
2022/07/18 03:24:22;;;;;;;7.50;1.88;;;;;;;16.18;81.92;101489.94;2032907;29;20043;-62
2022/07/18 03:25:25;;;;;;;5.45;1.70;;;;;;;16.18;81.78;101484.50;2032725;29;20059;-62
2022/07/18 03:26:29;;;;;;;4.57;1.80;;;;;;;16.16;81.90;101492.94;2032496;29;20428;-62
2022/07/18 03:27:36;;;;;;;3.83;1.80;;;;;;;16.19;81.78;101486.13;2025745;29;20045;-63
2022/07/18 03:28:40;;;;;;;3.70;1.70;;;;;;;16.19;81.97;101489.63;2032695;29;20052;-62
2022/07/18 03:29:50;;;;;;;12.00;1.80;;;;;;;16.19;82.04;101488.84;2033321;29;20032;-63
2022/07/18 03:30:53;;;;;;;6.80;1.70;;;;;;;16.20;82.14;101487.72;2032836;29;20459;-63
2022/07/18 03:32:00;;;;;;;4.85;1.67;;;;;;;16.20;82.25;101495.88;2032897;29;20040;-62
2022/07/18 03:33:05;;;;;;;5.45;2.05;;;;;;;16.20;82.17;101488.56;2017208;29;20421;-63
2022/07/18 03:34:09;;;;;;;6.90;1.80;;;;;;;16.21;82.30;101495.59;2017125;29;20568;-63
2022/07/18 03:35:11;;;;;;;5.15;1.98;;;;;;;16.20;82.13;101488.56;2025891;29;20611;-63
2022/07/18 03:36:14;;;;;;;4.82;1.90;;;;;;;16.21;82.15;101489.34;2032856;29;20082;-63
2022/07/18 03:37:16;;;;;;;4.95;2.03;;;;;;;16.24;82.09;101488.78;2032744;29;20456;-63
2022/07/18 03:38:20;;;;;;;4.55;2.20;;;;;;;16.28;82.19;101489.78;2017326;29;20040;-62
2022/07/18 03:39:25;;;;;;;3.53;1.63;;;;;;;16.28;82.37;101497.13;2010201;29;20050;-62
2022/07/18 03:40:30;;;;;;;4.85;1.90;;;;;;;16.25;82.05;101490.38;2025326;29;20056;-62
2022/07/18 03:41:34;;;;;;;7.53;2.00;;;;;;;16.26;81.89;101491.97;2024309;29;20105;-62
2022/07/18 03:42:42;;;;;;;4.53;1.85;;;;;;;16.27;82.12;101484.63;2018214;29;20536;-62
2022/07/18 03:43:44;;;;;;;5.57;1.48;;;;;;;16.29;82.15;101485.97;2032883;29;20040;-62
2022/07/18 03:44:49;;;;;;;4.72;1.73;;;;;;;16.26;82.21;101485.75;2032883;29;20405;-62
2022/07/18 03:45:54;;;;;;;7.60;1.60;;;;;;;16.30;81.92;101493.03;2032888;29;20040;-62
2022/07/18 03:46:57;;;;;;;5.15;1.92;;;;;;;16.31;81.97;101494.63;2032413;29;20511;-62
2022/07/18 03:47:58;;;;;;;5.43;1.65;;;;;;;16.32;82.08;101487.28;2025259;29;20063;-62
2022/07/18 03:49:03;;;;;;;8.98;1.65;;;;;;;16.31;82.09;101491.91;2032318;29;20465;-63
2022/07/18 03:50:10;;;;;;;3.67;1.90;;;;;;;16.33;82.09;101492.44;2017178;29;20547;-63
2022/07/18 03:51:12;;;;;;;5.03;2.28;;;;;;;16.34;81.90;101485.09;2018017;29;20494;-63
2022/07/18 03:52:19;;;;;;;4.35;2.03;;;;;;;16.36;82.11;101486.41;2024845;29;20489;-63
2022/07/18 03:53:23;;;;;;;4.72;2.10;;;;;;;16.37;82.06;101487.22;2024855;29;20048;-63
2022/07/18 03:54:28;;;;;;;6.97;1.80;;;;;;;16.37;81.80;101487.22;2024208;29;20083;-63
2022/07/18 03:55:31;;;;;;;4.50;1.70;;;;;;;16.39;81.79;101490.44;2029580;29;20547;-63
2022/07/18 03:56:37;;;;;;;5.35;1.75;;;;;;;16.39;82.29;101485.84;2024147;29;20048;-63
2022/07/18 03:57:42;;;;;;;4.35;1.88;;;;;;;16.38;82.09;101486.91;2014693;29;20049;-63
2022/07/18 03:58:48;;;;;;;5.35;1.63;;;;;;;16.39;81.92;101490.44;2024921;29;20592;-63
2022/07/18 03:59:53;;;;;;;5.63;1.88;;;;;;;16.39;82.09;101493.13;2032171;29;20052;-63
2022/07/18 04:00:56;;;;;;;5.47;1.90;;;;;;;16.41;81.98;101494.47;2029888;29;20059;-62
2022/07/18 04:02:03;;;;;;;5.07;1.85;;;;;;;16.43;81.95;101496.91;2025508;29;20397;-63
2022/07/18 04:03:06;;;;;;;7.85;1.80;;;;;;;16.43;82.04;101497.69;2025320;29;20521;-63
2022/07/18 04:04:10;;;;;;;8.15;1.88;;;;;;;16.42;82.05;101495.25;2025515;29;20036;-64
2022/07/18 04:05:16;;;;;;;6.13;2.22;;;;;;;16.43;82.05;101492.28;2024331;29;20056;-63
2022/07/18 04:06:18;;;;;;;7.60;2.10;;;;;;;16.43;82.29;101489.56;2017345;29;20053;-63
2022/07/18 04:07:24;;;;;;;8.85;2.17;;;;;;;16.44;81.98;101483.03;2024336;29;20048;-63
2022/07/18 04:08:29;;;;;;;9.82;1.70;;;;;;;16.45;82.29;101478.38;2024853;29;20445;-63
2022/07/18 04:09:30;;;;;;;3.75;1.60;;;;;;;16.45;81.99;101484.63;2016917;29;20057;-63
2022/07/18 04:10:35;;;;;;;2.20;1.48;;;;;;;16.47;82.16;101484.34;2001504;29;20065;-62
2022/07/18 04:11:40;;;;;;;8.52;1.90;;;;;;;16.49;82.23;101481.31;2017504;29;20052;-62
2022/07/18 04:12:46;;;;;;;9.68;1.92;;;;;;;16.49;82.26;101478.59;2024227;29;20049;-63
2022/07/18 04:13:49;;;;;;;4.57;1.80;;;;;;;16.52;82.29;101478.00;2024425;29;20048;-63
2022/07/18 04:14:53;;;;;;;3.72;1.77;;;;;;;16.51;82.30;101476.41;2009273;29;20049;-62
2022/07/18 04:15:55;;;;;;;3.90;1.75;;;;;;;16.55;82.29;101477.41;2001725;29;20463;-63
2022/07/18 04:16:58;;;;;;;5.28;1.80;;;;;;;16.52;81.92;101472.59;2009009;29;20050;-63
2022/07/18 04:18:02;;;;;;;4.72;1.58;;;;;;;16.55;82.00;101474.72;2021656;29;20036;-63
2022/07/18 04:19:10;;;;;;;4.30;1.60;;;;;;;16.56;81.85;101484.47;2032536;29;20059;-62
2022/07/18 04:20:14;;;;;;;3.47;1.70;;;;;;;16.56;82.04;101479.84;2032351;29;20047;-62
2022/07/18 04:21:16;;;;;;;7.90;1.85;;;;;;;16.59;81.92;101484.69;2032448;29;20028;-62
2022/07/18 04:22:18;;;;;;;5.70;1.90;;;;;;;16.62;81.74;101477.88;2032245;29;20036;-62
2022/07/18 04:23:22;;;;;;;3.42;1.92;;;;;;;16.61;81.74;101477.06;2032062;29;20047;-62
2022/07/18 04:24:26;;;;;;;5.13;1.80;;;;;;;16.64;81.73;101475.66;2032729;29;20075;-63
2022/07/18 04:25:34;;;;;;;3.30;1.60;;;;;;;16.66;81.77;101484.31;2032257;29;20048;-63
2022/07/18 04:26:38;;;;;;;3.55;1.90;;;;;;;16.66;81.68;101478.88;2032413;29;20039;-62
2022/07/18 04:27:44;;;;;;;6.30;1.80;;;;;;;16.66;81.71;101487.81;2025007;29;20048;-63
2022/07/18 04:28:46;;;;;;;6.03;1.52;;;;;;;16.69;81.66;101472.84;2024784;29;20056;-62
2022/07/18 04:29:54;;;;;;;4.60;1.60;;;;;;;16.71;81.52;101478.81;2025319;29;20063;-62
2022/07/18 04:31:03;;;;;;;4.53;1.60;;;;;;;16.71;81.44;101481.53;2025458;29;20044;-62
2022/07/18 04:32:10;;;;;;;3.10;1.70;;;;;;;16.74;81.34;101490.97;2031671;29;20052;-62
2022/07/18 04:33:15;;;;;;;3.03;1.88;;;;;;;16.73;81.38;101484.72;2032214;29;20048;-62
2022/07/18 04:34:22;;;;;;;7.30;2.42;;;;;;;16.74;81.46;101475.50;2032002;29;20040;-62
2022/07/18 04:35:25;;;;;;;6.13;1.73;;;;;;;16.76;81.30;101481.44;2032229;29;20055;-62
2022/07/18 04:36:26;;;;;;;5.72;1.52;;;;;;;16.77;81.42;101472.22;2033764;29;20039;-62
2022/07/18 04:37:32;;;;;;;5.13;1.90;;;;;;;16.80;81.41;101484.38;2033600;29;20047;-62
2022/07/18 04:38:37;;;;;;;8.70;1.80;;;;;;;16.78;81.31;101479.25;2024441;29;20047;-62
2022/07/18 04:39:38;;;;;;;6.65;1.95;;;;;;;16.78;81.51;101476.53;2016913;29;20068;-62
2022/07/18 04:40:46;;;;;;;5.65;1.90;;;;;;;16.81;81.30;101478.66;2023362;29;20056;-63
2022/07/18 04:41:47;;;;;;;2.28;1.60;;;;;;;16.82;81.38;101476.75;2031318;29;20040;-62
2022/07/18 04:42:50;;;;;;;5.97;1.90;;;;;;;16.83;81.26;101483.78;2032169;29;20048;-62
2022/07/18 04:43:54;;;;;;;2.67;1.55;;;;;;;16.85;81.14;101468.81;2021707;29;20053;-62
2022/07/18 04:44:57;;;;;;;3.40;1.67;;;;;;;16.86;81.19;101478.56;2024148;29;20036;-62
2022/07/18 04:45:59;;;;;;;4.05;1.75;;;;;;;16.88;81.38;101476.34;2030125;29;20043;-62
2022/07/18 04:47:02;;;;;;;5.38;2.10;;;;;;;16.89;81.30;101486.09;2024071;29;20040;-62
2022/07/18 04:48:08;;;;;;;3.60;2.00;;;;;;;16.92;81.20;101479.28;2031469;29;20044;-62
2022/07/18 04:49:10;;;;;;;8.70;2.20;;;;;;;16.93;80.99;101478.19;2032727;29;20052;-62
2022/07/18 04:50:12;;;;;;;3.80;1.90;;;;;;;16.96;81.06;101482.19;2031618;29;20052;-65
2022/07/18 04:51:18;;;;;;;3.97;2.03;;;;;;;16.99;81.04;101484.31;2024299;29;20096;-65
2022/07/18 04:52:23;;;;;;;4.07;1.65;;;;;;;16.99;80.88;101474.28;2009039;29;20088;-66
2022/07/18 04:53:26;;;;;;;6.40;1.80;;;;;;;17.00;80.95;101483.22;2002482;29;20145;-65
2022/07/18 04:54:33;;;;;;;2.83;1.73;;;;;;;17.00;80.96;101477.81;2017629;29;20037;-65
2022/07/18 04:55:38;;;;;;;5.70;2.00;;;;;;;17.02;80.90;101481.00;2029266;29;20052;-66
2022/07/18 04:56:45;;;;;;;7.53;2.00;;;;;;;17.06;80.89;101485.56;2012102;29;20060;-66
2022/07/18 04:57:48;;;;;;;6.20;1.90;;;;;;;17.08;80.63;101482.53;2022891;29;20063;-66
2022/07/18 04:58:55;;;;;;;5.95;2.00;;;;;;;17.10;80.81;101489.28;2029557;29;20048;-66
2022/07/18 05:00:02;;;;;;;8.13;1.85;;;;;;;17.13;80.83;101482.44;2021140;29;20068;-66
2022/07/18 05:01:08;;;;;;;10.85;2.83;;;;;;;17.16;80.68;101484.56;2008235;29;20057;-65
2022/07/18 05:02:11;;;;;;;5.25;2.03;;;;;;;17.18;80.89;101485.06;2016857;29;20117;-66